createdAt,value
2023-05-20T00:00:53.170Z,80.79
2023-05-20T00:01:53.129Z,80.79
2023-05-20T00:02:53.216Z,80.69
2023-05-20T00:03:53.316Z,80.79
2023-05-20T00:04:53.122Z,80.83
2023-05-20T00:05:53.083Z,80.93
2023-05-20T00:06:53.100Z,81.04
2023-05-20T00:07:53.120Z,81.14
2023-05-20T00:08:53.124Z,81.24
2023-05-20T00:09:53.050Z,81.24
2023-05-20T00:10:53.056Z,80.93
2023-05-20T00:11:53.034Z,80.83
2023-05-20T00:12:52.999Z,80.73
2023-05-20T00:13:53.002Z,80.21
2023-05-20T00:14:53.936Z,80.11
2023-05-20T00:15:52.991Z,80.11
2023-05-20T00:16:52.999Z,80.11
2023-05-20T00:17:52.974Z,79.60
2023-05-20T00:18:52.988Z,79.25
2023-05-20T00:19:52.946Z,79.25
2023-05-20T00:20:52.934Z,79.15
2023-05-20T00:21:52.927Z,79.05
2023-05-20T00:22:52.880Z,79.36
2023-05-20T00:23:52.930Z,79.25
2023-05-20T00:24:52.876Z,79.15
2023-05-20T00:25:52.865Z,79.15
2023-05-20T00:26:52.955Z,79.36
2023-05-20T00:27:52.949Z,79.39
2023-05-20T00:28:52.845Z,79.19
2023-05-20T00:29:52.846Z,79.70
2023-05-20T00:30:52.856Z,79.60
2023-05-20T00:31:52.848Z,79.29
2023-05-20T00:32:52.859Z,79.60
2023-05-20T00:33:52.764Z,79.91
2023-05-20T00:34:52.754Z,79.80
2023-05-20T00:35:52.747Z,79.60
2023-05-20T00:36:52.726Z,79.70
2023-05-20T00:37:52.774Z,79.91
2023-05-20T00:38:52.686Z,79.91
2023-05-20T00:39:52.713Z,79.80
2023-05-20T00:40:52.782Z,80.01
2023-05-20T00:41:52.686Z,80.42
2023-05-20T00:42:52.646Z,80.42
2023-05-20T00:43:52.686Z,80.83
2023-05-20T00:44:52.630Z,80.93
2023-05-20T00:45:52.706Z,80.83
2023-05-20T00:46:52.619Z,80.63
2023-05-20T00:47:52.810Z,80.83
2023-05-20T00:48:52.698Z,80.93
2023-05-20T00:49:52.704Z,80.83
2023-05-20T00:50:52.556Z,80.63
2023-05-20T00:51:52.576Z,80.77
2023-05-20T00:52:52.512Z,80.46
2023-05-20T00:53:52.558Z,80.42
2023-05-20T00:54:52.519Z,80.46
2023-05-20T00:55:52.545Z,80.56
2023-05-20T00:56:52.740Z,80.77
2023-05-20T00:57:52.509Z,80.87
2023-05-20T00:58:52.456Z,80.87
2023-05-20T00:59:52.505Z,81.07
2023-05-20T01:00:52.447Z,81.18
2023-05-20T01:01:52.559Z,81.07
2023-05-20T01:02:52.538Z,81.07
2023-05-20T01:03:52.466Z,81.18
2023-05-20T01:04:52.393Z,81.28
2023-05-20T01:05:52.416Z,81.38
2023-05-20T01:06:52.353Z,81.18
2023-05-20T01:07:52.375Z,81.32
2023-05-20T01:08:52.360Z,81.62
2023-05-20T01:09:52.357Z,81.62
2023-05-20T01:10:52.308Z,81.73
2023-05-20T01:11:52.331Z,81.62
2023-05-20T01:12:52.348Z,81.73
2023-05-20T01:13:52.294Z,81.73
2023-05-20T01:14:52.296Z,82.14
2023-05-20T01:15:52.323Z,82.34
2023-05-20T01:16:52.244Z,82.96
2023-05-20T01:17:52.511Z,83.11
2023-05-20T01:18:52.266Z,83.00
2023-05-20T01:19:52.347Z,83.00
2023-05-20T01:20:52.236Z,83.20
2023-05-20T01:21:52.231Z,83.31
2023-05-20T01:22:52.190Z,83.41
2023-05-20T01:23:52.209Z,83.41
2023-05-20T01:24:52.155Z,83.51
2023-05-20T01:25:52.157Z,83.51
2023-05-20T01:26:52.140Z,83.62
2023-05-20T01:27:52.181Z,83.97
2023-05-20T01:28:52.111Z,84.07
2023-05-20T01:29:52.203Z,84.07
2023-05-20T01:30:52.198Z,84.17
2023-05-20T01:31:52.198Z,84.07
2023-05-20T01:32:52.171Z,84.17
2023-05-20T01:33:52.086Z,84.07
2023-05-20T01:34:52.044Z,84.17
2023-05-20T01:35:52.046Z,84.07
2023-05-20T01:36:52.046Z,84.07
2023-05-20T01:37:52.036Z,84.07
2023-05-20T01:38:51.983Z,84.17
2023-05-20T01:39:52.020Z,84.27
2023-05-20T01:40:51.990Z,84.48
2023-05-20T01:41:51.977Z,84.48
2023-05-20T01:42:51.952Z,84.69
2023-05-20T01:43:52.004Z,84.72
2023-05-20T01:44:51.912Z,84.83
2023-05-20T01:45:51.925Z,84.93
2023-05-20T01:46:51.937Z,85.14
2023-05-20T01:47:51.938Z,85.34
2023-05-20T01:48:51.886Z,85.44
2023-05-20T01:49:52.033Z,85.44
2023-05-20T01:50:51.984Z,85.44
2023-05-20T01:51:51.853Z,85.44
2023-05-20T01:52:51.834Z,85.55
2023-05-20T01:53:51.854Z,85.44
2023-05-20T01:54:51.871Z,85.65
2023-05-20T01:55:51.817Z,85.65
2023-05-20T01:56:51.789Z,85.69
2023-05-20T01:57:51.869Z,85.89
2023-05-20T01:58:51.798Z,86.00
2023-05-20T01:59:51.788Z,86.10
2023-05-20T02:00:51.793Z,86.31
2023-05-20T02:01:51.887Z,86.52
2023-05-20T02:02:51.747Z,86.41
2023-05-20T02:03:51.844Z,86.31
2023-05-20T02:04:51.689Z,86.21
2023-05-20T02:05:51.778Z,86.10
2023-05-20T02:06:51.664Z,86.00
2023-05-20T02:07:51.682Z,85.89
2023-05-20T02:08:51.637Z,85.89
2023-05-20T02:09:52.234Z,86.10
2023-05-20T02:10:51.752Z,86.10
2023-05-20T02:11:51.643Z,86.10
2023-05-20T02:12:51.615Z,86.10
2023-05-20T02:13:51.633Z,86.21
2023-05-20T02:14:51.612Z,86.52
2023-05-20T02:15:51.590Z,86.87
2023-05-20T02:16:51.632Z,87.07
2023-05-20T02:17:51.584Z,87.07
2023-05-20T02:18:51.656Z,87.07
2023-05-20T02:19:51.590Z,87.17
2023-05-20T02:20:51.518Z,87.27
2023-05-20T02:21:51.689Z,87.17
2023-05-20T02:22:51.514Z,86.97
2023-05-20T02:23:51.528Z,87.07
2023-05-20T02:24:51.464Z,87.07
2023-05-20T02:25:51.538Z,86.97
2023-05-20T02:26:51.455Z,86.97
2023-05-20T02:27:51.457Z,87.07
2023-05-20T02:28:51.420Z,87.07
2023-05-20T02:29:51.439Z,87.17
2023-05-20T02:30:51.457Z,87.38
2023-05-20T02:31:51.604Z,87.38
2023-05-20T02:32:51.416Z,87.17
2023-05-20T02:33:51.462Z,86.87
2023-05-20T02:34:51.361Z,86.76
2023-05-20T02:35:51.465Z,86.55
2023-05-20T02:36:51.316Z,86.61
2023-05-20T02:37:51.370Z,86.52
2023-05-20T02:38:51.326Z,86.52
2023-05-20T02:39:51.331Z,86.41
2023-05-20T02:40:51.355Z,86.41
2023-05-20T02:41:51.307Z,86.41
2023-05-20T02:42:51.268Z,86.31
2023-05-20T02:43:51.412Z,86.41
2023-05-20T02:44:51.233Z,86.52
2023-05-20T02:45:51.261Z,86.61
2023-05-20T02:46:51.229Z,86.52
2023-05-20T02:47:51.334Z,86.52
2023-05-20T02:48:51.244Z,86.52
2023-05-20T02:49:51.227Z,86.52
2023-05-20T02:50:51.192Z,86.61
2023-05-20T02:51:51.189Z,86.72
2023-05-20T02:52:51.150Z,86.82
2023-05-20T02:53:51.161Z,86.93
2023-05-20T02:54:51.100Z,87.03
2023-05-20T02:55:51.232Z,87.24
2023-05-20T02:56:51.124Z,87.13
2023-05-20T02:57:51.114Z,86.93
2023-05-20T02:58:51.070Z,86.72
2023-05-20T02:59:51.081Z,86.82
2023-05-20T03:00:51.125Z,86.93
2023-05-20T03:01:51.083Z,87.13
2023-05-20T03:02:51.101Z,87.34
2023-05-20T03:03:51.100Z,87.59
2023-05-20T03:04:51.138Z,87.79
2023-05-20T03:05:50.989Z,87.79
2023-05-20T03:06:50.980Z,87.90
2023-05-20T03:07:50.990Z,87.99
2023-05-20T03:08:50.939Z,87.99
2023-05-20T03:09:50.970Z,88.10
2023-05-20T03:10:50.939Z,88.10
2023-05-20T03:11:50.937Z,88.31
2023-05-20T03:12:50.951Z,88.51
2023-05-20T03:13:50.900Z,88.62
2023-05-20T03:14:50.866Z,88.72
2023-05-20T03:15:51.000Z,88.72
2023-05-20T03:16:50.883Z,88.82
2023-05-20T03:17:50.990Z,88.92
2023-05-20T03:18:50.852Z,89.13
2023-05-20T03:19:50.831Z,89.23
2023-05-20T03:20:51.014Z,89.34
2023-05-20T03:21:50.810Z,89.34
2023-05-20T03:22:50.870Z,89.44
2023-05-20T03:23:50.805Z,89.65
2023-05-20T03:24:50.771Z,89.65
2023-05-20T03:25:50.780Z,89.75
2023-05-20T03:26:50.754Z,89.75
2023-05-20T03:27:50.738Z,89.85
2023-05-20T03:28:50.723Z,89.85
2023-05-20T03:29:50.727Z,89.85
2023-05-20T03:30:50.684Z,89.85
2023-05-20T03:31:51.252Z,89.85
2023-05-20T03:32:51.061Z,89.95
2023-05-20T03:33:50.668Z,89.95
2023-05-20T03:34:50.646Z,89.95
2023-05-20T03:35:50.660Z,89.95
2023-05-20T03:36:50.694Z,89.91
2023-05-20T03:37:50.643Z,90.01
2023-05-20T03:38:50.662Z,90.01
2023-05-20T03:39:50.601Z,89.91
2023-05-20T03:40:50.569Z,89.91
2023-05-20T03:41:50.574Z,89.81
2023-05-20T03:42:50.675Z,89.71
2023-05-20T03:43:50.575Z,89.67
2023-05-20T03:44:50.520Z,89.56
2023-05-20T03:45:50.597Z,89.36
2023-05-20T03:46:50.533Z,89.25
2023-05-20T03:47:50.567Z,89.15
2023-05-20T03:48:50.475Z,89.15
2023-05-20T03:49:50.553Z,89.05
2023-05-20T03:50:50.460Z,88.95
2023-05-20T03:51:50.479Z,88.95
2023-05-20T03:52:50.692Z,88.74
2023-05-20T03:53:50.590Z,88.64
2023-05-20T03:54:50.509Z,88.64
2023-05-20T03:55:50.419Z,88.49
2023-05-20T03:56:50.397Z,88.49
2023-05-20T03:57:50.445Z,88.49
2023-05-20T03:58:50.383Z,88.39
2023-05-20T03:59:50.473Z,88.49
2023-05-20T04:00:50.342Z,88.39
2023-05-20T04:01:50.388Z,88.29
2023-05-20T04:02:50.400Z,88.08
2023-05-20T04:03:50.526Z,87.98
2023-05-20T04:04:50.279Z,87.87
2023-05-20T04:05:50.294Z,87.73
2023-05-20T04:06:50.354Z,87.52
2023-05-20T04:07:50.285Z,87.42
2023-05-20T04:08:50.246Z,87.42
2023-05-20T04:09:50.299Z,87.32
2023-05-20T04:10:50.250Z,87.22
2023-05-20T04:11:50.218Z,87.12
2023-05-20T04:12:50.304Z,87.01
2023-05-20T04:13:50.252Z,86.97
2023-05-20T04:14:50.207Z,86.87
2023-05-20T04:15:50.240Z,86.66
2023-05-20T04:16:50.281Z,86.46
2023-05-20T04:17:50.233Z,86.35
2023-05-20T04:18:50.131Z,86.35
2023-05-20T04:19:50.179Z,86.35
2023-05-20T04:20:50.122Z,86.52
2023-05-20T04:21:50.140Z,86.62
2023-05-20T04:22:50.114Z,86.62
2023-05-20T04:23:50.098Z,86.52
2023-05-20T04:24:50.056Z,86.52
2023-05-20T04:25:50.166Z,86.52
2023-05-20T04:26:50.043Z,86.42
2023-05-20T04:27:50.065Z,86.27
2023-05-20T04:28:50.023Z,86.07
2023-05-20T04:29:50.262Z,85.97
2023-05-20T04:30:50.027Z,85.76
2023-05-20T04:31:50.111Z,85.25
2023-05-20T04:32:50.475Z,84.59
2023-05-20T04:33:49.964Z,84.28
2023-05-20T04:34:49.972Z,84.08
2023-05-20T04:35:49.924Z,84.08
2023-05-20T04:36:49.967Z,84.08
2023-05-20T04:37:49.903Z,83.98
2023-05-20T04:38:49.933Z,83.94
2023-05-20T04:39:49.908Z,83.83
2023-05-20T04:40:49.906Z,83.73
2023-05-20T04:41:49.865Z,83.73
2023-05-20T04:42:49.938Z,83.59
2023-05-20T04:43:49.828Z,83.59
2023-05-20T04:44:49.848Z,83.49
2023-05-20T04:45:49.821Z,83.49
2023-05-20T04:46:49.865Z,83.34
2023-05-20T04:47:49.853Z,83.25
2023-05-20T04:48:49.798Z,83.14
2023-05-20T04:49:49.780Z,83.14
2023-05-20T04:50:49.800Z,83.00
2023-05-20T04:51:49.742Z,82.90
2023-05-20T04:52:49.763Z,82.69
2023-05-20T04:53:49.909Z,82.69
2023-05-20T04:54:49.964Z,82.65
2023-05-20T04:55:49.704Z,82.55
2023-05-20T04:56:49.723Z,82.45
2023-05-20T04:57:49.708Z,82.24
2023-05-20T04:58:49.688Z,82.00
2023-05-20T04:59:49.665Z,81.90
2023-05-20T05:00:49.677Z,81.79
2023-05-20T05:01:49.758Z,81.59
2023-05-20T05:02:49.763Z,81.29
2023-05-20T05:03:49.701Z,81.24
2023-05-20T05:04:49.705Z,81.15
2023-05-20T05:05:49.593Z,81.04
2023-05-20T05:06:49.643Z,80.63
2023-05-20T05:07:49.583Z,80.43
2023-05-20T05:08:49.575Z,79.78
2023-05-20T05:09:49.541Z,79.47
2023-05-20T05:10:49.552Z,79.37
2023-05-20T05:11:49.634Z,79.37
2023-05-20T05:12:49.529Z,79.16
2023-05-20T05:13:49.682Z,79.16
2023-05-20T05:14:49.536Z,79.16
2023-05-20T05:15:49.605Z,79.02
2023-05-20T05:16:49.479Z,79.02
2023-05-20T05:17:49.481Z,79.02
2023-05-20T05:18:49.537Z,79.23
2023-05-20T05:19:49.450Z,79.23
2023-05-20T05:20:49.569Z,79.50
2023-05-20T05:21:49.468Z,79.39
2023-05-20T05:22:49.457Z,79.39
2023-05-20T05:23:49.374Z,79.50
2023-05-20T05:24:49.452Z,79.46
2023-05-20T05:25:49.408Z,79.25
2023-05-20T05:26:49.368Z,79.25
2023-05-20T05:27:49.414Z,78.85
2023-05-20T05:28:49.626Z,78.23
2023-05-20T05:29:49.314Z,78.00
2023-05-20T05:30:49.396Z,77.79
2023-05-20T05:31:49.333Z,77.69
2023-05-20T05:32:49.601Z,77.18
2023-05-20T05:33:49.299Z,77.14
2023-05-20T05:34:49.371Z,77.25
2023-05-20T05:35:49.348Z,77.14
2023-05-20T05:36:49.261Z,76.90
2023-05-20T05:37:49.237Z,76.70
2023-05-20T05:38:49.274Z,76.59
2023-05-20T05:39:49.216Z,76.80
2023-05-20T05:40:49.211Z,76.19
2023-05-20T05:41:49.188Z,76.25
2023-05-20T05:42:49.299Z,75.95
2023-05-20T05:43:49.164Z,75.64
2023-05-20T05:44:49.191Z,75.95
2023-05-20T05:45:49.284Z,75.71
2023-05-20T05:46:49.288Z,75.92
2023-05-20T05:47:49.201Z,75.71
2023-05-20T05:48:49.161Z,74.25
2023-05-20T05:49:49.127Z,74.15
2023-05-20T05:50:49.090Z,74.25
2023-05-20T05:51:49.054Z,74.15
2023-05-20T05:52:49.089Z,73.60
2023-05-20T05:53:49.028Z,73.10
2023-05-20T05:54:49.606Z,72.89
2023-05-20T05:55:49.288Z,71.77
2023-05-20T05:56:49.050Z,71.23
2023-05-20T05:57:49.036Z,71.53
2023-05-20T05:58:49.232Z,71.64
2023-05-20T05:59:48.965Z,71.23
2023-05-20T06:00:49.157Z,70.92
2023-05-20T06:01:49.108Z,70.79
2023-05-20T06:02:49.211Z,71.09
2023-05-20T06:03:49.052Z,70.89
2023-05-20T06:04:48.985Z,70.79
2023-05-20T06:05:48.903Z,70.45
2023-05-20T06:06:48.919Z,70.25
2023-05-20T06:07:48.958Z,69.53
2023-05-20T06:08:48.911Z,69.84
2023-05-20T06:09:48.909Z,69.70
2023-05-20T06:10:48.913Z,69.20
2023-05-20T06:11:49.014Z,68.89
2023-05-20T06:12:48.848Z,68.96
2023-05-20T06:13:48.843Z,68.86
2023-05-20T06:14:48.840Z,68.86
2023-05-20T06:15:48.936Z,68.32
2023-05-20T06:16:48.992Z,68.01
2023-05-20T06:17:48.786Z,68.12
2023-05-20T06:18:48.824Z,67.71
2023-05-20T06:19:48.748Z,67.58
2023-05-20T06:20:48.798Z,67.27
2023-05-20T06:21:48.747Z,66.66
2023-05-20T06:22:48.759Z,66.77
2023-05-20T06:23:48.701Z,66.63
2023-05-20T06:24:48.741Z,66.63
2023-05-20T06:25:48.754Z,66.33
2023-05-20T06:26:48.697Z,65.92
2023-05-20T06:27:49.021Z,66.09
2023-05-20T06:28:48.692Z,66.19
2023-05-20T06:29:48.640Z,65.86
2023-05-20T06:30:48.771Z,65.15
2023-05-20T06:31:48.620Z,65.45
2023-05-20T06:32:48.662Z,65.22
2023-05-20T06:33:48.600Z,64.92
2023-05-20T06:34:48.637Z,64.51
2023-05-20T06:35:49.352Z,64.28
2023-05-20T06:36:48.659Z,63.67
2023-05-20T06:37:48.750Z,63.57
2023-05-20T06:38:48.560Z,63.98
2023-05-20T06:39:48.557Z,63.98
2023-05-20T06:40:48.549Z,63.17
2023-05-20T06:41:48.493Z,63.04
2023-05-20T06:42:48.523Z,62.63
2023-05-20T06:43:49.104Z,62.43
2023-05-20T06:44:48.516Z,61.72
2023-05-20T06:45:48.457Z,62.02
2023-05-20T06:46:48.527Z,62.02
2023-05-20T06:47:48.472Z,62.23
2023-05-20T06:48:48.484Z,62.02
2023-05-20T06:49:48.413Z,61.82
2023-05-20T06:50:48.509Z,62.33
2023-05-20T06:51:48.416Z,62.30
2023-05-20T06:52:48.390Z,61.72
2023-05-20T06:53:48.356Z,62.19
2023-05-20T06:54:48.370Z,62.10
2023-05-20T06:55:48.390Z,61.90
2023-05-20T06:56:48.475Z,62.30
2023-05-20T06:57:48.490Z,61.08
2023-05-20T06:58:48.327Z,61.49
2023-05-20T06:59:48.284Z,61.56
2023-05-20T07:00:48.312Z,61.76
2023-05-20T07:01:48.287Z,60.85
2023-05-20T07:02:48.340Z,60.55
2023-05-20T07:03:48.298Z,60.85
2023-05-20T07:04:48.250Z,60.52
2023-05-20T07:05:52.468Z,60.52
2023-05-20T07:06:48.225Z,60.12
2023-05-20T07:07:48.207Z,60.72
2023-05-20T07:08:48.196Z,60.80
2023-05-20T07:09:48.172Z,60.29
2023-05-20T07:10:48.222Z,59.99
2023-05-20T07:11:48.152Z,59.66
2023-05-20T07:12:48.166Z,59.05
2023-05-20T07:13:48.238Z,59.45
2023-05-20T07:14:48.152Z,59.73
2023-05-20T07:15:48.195Z,59.42
2023-05-20T07:16:48.237Z,59.02
2023-05-20T07:17:48.392Z,58.89
2023-05-20T07:18:48.139Z,58.39
2023-05-20T07:19:48.059Z,58.29
2023-05-20T07:20:48.129Z,58.12
2023-05-20T07:21:48.045Z,58.32
2023-05-20T07:22:48.060Z,58.65
2023-05-20T07:23:48.055Z,59.08
2023-05-20T07:24:48.035Z,58.98
2023-05-20T07:25:48.002Z,59.71
2023-05-20T07:26:48.020Z,60.32
2023-05-20T07:27:48.103Z,60.42
2023-05-20T07:28:47.980Z,59.81
2023-05-20T07:29:47.947Z,59.91
2023-05-20T07:30:47.974Z,60.22
2023-05-20T07:31:47.943Z,60.22
2023-05-20T07:32:47.955Z,60.22
2023-05-20T07:33:47.946Z,60.22
2023-05-20T07:34:47.936Z,59.69
2023-05-20T07:35:47.954Z,59.69
2023-05-20T07:36:47.915Z,59.69
2023-05-20T07:37:48.171Z,59.38
2023-05-20T07:39:00.539Z,59.48
2023-05-20T07:39:49.009Z,59.48
2023-05-20T07:40:47.856Z,59.18
2023-05-20T07:41:47.857Z,59.51
2023-05-20T07:42:47.856Z,59.81
2023-05-20T07:43:47.795Z,59.81
2023-05-20T07:44:47.804Z,60.22
2023-05-20T07:45:47.819Z,60.22
2023-05-20T07:46:47.789Z,60.22
2023-05-20T07:47:47.810Z,59.58
2023-05-20T07:48:47.772Z,60.09
2023-05-20T07:49:47.737Z,60.09
2023-05-20T07:50:47.762Z,59.38
2023-05-20T07:51:47.709Z,59.58
2023-05-20T07:52:56.072Z,59.28
2023-05-20T07:53:48.688Z,59.58
2023-05-20T07:54:47.693Z,59.18
2023-05-20T07:55:47.657Z,59.41
2023-05-20T07:56:47.761Z,59.61
2023-05-20T07:57:48.100Z,60.02
2023-05-20T07:58:47.804Z,59.91
2023-05-20T07:59:47.660Z,60.22
2023-05-20T08:00:47.617Z,59.91
2023-05-20T08:01:47.666Z,60.02
2023-05-20T08:02:47.695Z,59.81
2023-05-20T08:03:47.687Z,60.22
2023-05-20T08:04:47.592Z,59.51
2023-05-20T08:05:47.542Z,60.02
2023-05-20T08:06:47.561Z,60.05
2023-05-20T08:07:47.558Z,60.45
2023-05-20T08:08:47.547Z,60.55
2023-05-20T08:09:47.535Z,60.75
2023-05-20T08:10:47.510Z,60.52
2023-05-20T08:11:47.761Z,60.12
2023-05-20T08:12:47.700Z,60.02
2023-05-20T08:13:47.470Z,60.02
2023-05-20T08:14:47.816Z,60.22
2023-05-20T08:15:47.438Z,59.89
2023-05-20T08:16:47.967Z,59.38
2023-05-20T08:17:47.654Z,59.41
2023-05-20T08:18:47.694Z,59.81
2023-05-20T08:19:47.713Z,60.02
2023-05-20T08:20:47.542Z,59.91
2023-05-20T08:21:47.743Z,60.42
2023-05-20T08:22:47.971Z,60.42
2023-05-20T08:23:47.554Z,60.02
2023-05-20T08:24:47.382Z,60.02
2023-05-20T08:25:47.417Z,59.99
2023-05-20T08:26:47.326Z,59.48
2023-05-20T08:27:47.329Z,59.15
2023-05-20T08:28:47.324Z,58.92
2023-05-20T08:29:47.331Z,58.32
2023-05-20T08:30:47.310Z,57.91
2023-05-20T08:31:47.256Z,58.32
2023-05-20T08:32:47.320Z,57.71
2023-05-20T08:33:47.231Z,58.42
2023-05-20T08:34:47.233Z,58.52
2023-05-20T08:35:47.208Z,58.22
2023-05-20T08:36:47.225Z,57.98
2023-05-20T08:37:47.174Z,57.98
2023-05-20T08:38:47.866Z,57.38
2023-05-20T08:39:47.177Z,57.68
2023-05-20T08:40:47.167Z,58.09
2023-05-20T08:41:47.156Z,58.19
2023-05-20T08:42:47.139Z,56.98
2023-05-20T08:43:47.167Z,57.05
2023-05-20T08:44:47.109Z,57.05
2023-05-20T08:45:47.147Z,57.35
2023-05-20T08:46:47.186Z,56.75
2023-05-20T08:47:47.128Z,56.95
2023-05-20T08:48:47.065Z,57.15
2023-05-20T08:49:47.076Z,57.25
2023-05-20T08:50:47.151Z,56.95
2023-05-20T08:51:47.060Z,57.15
2023-05-20T08:52:47.051Z,57.45
2023-05-20T08:53:47.069Z,56.85
2023-05-20T08:54:47.016Z,57.15
2023-05-20T08:55:47.014Z,56.95
2023-05-20T08:56:47.003Z,56.98
2023-05-20T08:57:47.026Z,57.48
2023-05-20T08:58:46.970Z,57.58
2023-05-20T08:59:47.174Z,57.78
2023-05-20T09:00:46.986Z,57.68
2023-05-20T09:01:46.966Z,57.76
2023-05-20T09:02:46.938Z,57.76
2023-05-20T09:03:46.904Z,57.45
2023-05-20T09:04:46.918Z,57.43
2023-05-20T09:05:47.156Z,56.72
2023-05-20T09:06:46.873Z,56.85
2023-05-20T09:07:46.873Z,56.75
2023-05-20T09:08:46.825Z,56.55
2023-05-20T09:09:46.850Z,56.75
2023-05-20T09:10:46.819Z,56.95
2023-05-20T09:11:46.944Z,57.25
2023-05-20T09:12:46.820Z,56.95
2023-05-20T09:13:46.820Z,57.38
2023-05-20T09:14:47.352Z,57.35
2023-05-20T09:15:47.050Z,57.68
2023-05-20T09:16:46.744Z,57.86
2023-05-20T09:17:46.805Z,57.96
2023-05-20T09:18:46.783Z,57.73
2023-05-20T09:19:46.761Z,56.90
2023-05-20T09:20:47.850Z,56.07
2023-05-20T09:21:47.129Z,55.69
2023-05-20T09:22:47.815Z,56.20
2023-05-20T09:23:46.682Z,56.20
2023-05-20T09:24:47.196Z,56.09
2023-05-20T09:25:46.651Z,55.91
2023-05-20T09:26:46.663Z,56.60
2023-05-20T09:27:46.625Z,56.32
2023-05-20T09:28:46.690Z,56.72
2023-05-20T09:29:46.941Z,56.70
2023-05-20T09:30:46.810Z,56.57
2023-05-20T09:31:46.939Z,56.77
2023-05-20T09:32:46.647Z,55.94
2023-05-20T09:33:46.599Z,55.43
2023-05-20T09:34:46.624Z,55.74
2023-05-20T09:35:46.573Z,55.31
2023-05-20T09:36:46.575Z,55.31
2023-05-20T09:37:46.566Z,55.08
2023-05-20T09:38:46.506Z,55.28
2023-05-20T09:39:46.563Z,54.85
2023-05-20T09:40:46.486Z,54.33
2023-05-20T09:41:46.489Z,53.82
2023-05-20T09:42:46.447Z,53.02
2023-05-20T09:43:46.454Z,53.42
2023-05-20T09:44:46.456Z,53.30
2023-05-20T09:45:47.072Z,52.69
2023-05-20T09:46:46.435Z,52.80
2023-05-20T09:47:46.491Z,52.49
2023-05-20T09:48:46.376Z,53.02
2023-05-20T09:49:46.376Z,53.92
2023-05-20T09:50:46.343Z,53.92
2023-05-20T09:51:46.393Z,53.92
2023-05-20T09:52:46.330Z,53.32
2023-05-20T09:53:46.413Z,53.32
2023-05-20T09:54:46.307Z,53.45
2023-05-20T09:55:46.320Z,53.95
2023-05-20T09:56:46.291Z,54.33
2023-05-20T09:57:46.296Z,53.52
2023-05-20T09:58:46.258Z,53.12
2023-05-20T09:59:46.309Z,53.42
2023-05-20T10:00:46.409Z,53.52
2023-05-20T10:01:46.485Z,54.02
2023-05-20T10:02:46.312Z,53.92
2023-05-20T10:03:46.320Z,53.70
2023-05-20T10:04:46.240Z,54.10
2023-05-20T10:05:46.212Z,52.89
2023-05-20T10:06:46.172Z,52.89
2023-05-20T10:07:46.198Z,52.80
2023-05-20T10:08:46.135Z,53.09
2023-05-20T10:09:46.175Z,52.80
2023-05-20T10:10:46.138Z,53.20
2023-05-20T10:11:46.261Z,52.87
2023-05-20T10:12:46.113Z,52.67
2023-05-20T10:13:46.114Z,52.80
2023-05-20T10:14:46.096Z,52.69
2023-05-20T10:15:46.154Z,52.87
2023-05-20T10:16:46.075Z,52.87
2023-05-20T10:17:46.184Z,52.47
2023-05-20T10:18:46.388Z,52.37
2023-05-20T10:19:46.056Z,52.37
2023-05-20T10:20:46.029Z,52.57
2023-05-20T10:21:46.163Z,52.59
2023-05-20T10:22:45.985Z,53.00
2023-05-20T10:23:46.005Z,53.39
2023-05-20T10:24:46.040Z,53.30
2023-05-20T10:25:46.017Z,53.30
2023-05-20T10:26:45.941Z,53.09
2023-05-20T10:27:45.971Z,53.39
2023-05-20T10:28:45.963Z,53.59
2023-05-20T10:29:46.510Z,53.47
2023-05-20T10:30:45.911Z,53.57
2023-05-20T10:31:45.925Z,52.89
2023-05-20T10:32:46.065Z,53.00
2023-05-20T10:33:45.973Z,53.30
2023-05-20T10:34:45.865Z,53.90
2023-05-20T10:35:45.865Z,53.42
2023-05-20T10:36:45.856Z,53.82
2023-05-20T10:37:45.842Z,53.72
2023-05-20T10:38:45.813Z,54.53
2023-05-20T10:39:45.820Z,54.63
2023-05-20T10:40:46.267Z,54.20
2023-05-20T10:41:46.122Z,53.12
2023-05-20T10:42:45.900Z,53.37
2023-05-20T10:43:45.770Z,54.30
2023-05-20T10:44:45.747Z,55.18
2023-05-20T10:45:45.778Z,54.68
2023-05-20T10:47:06.703Z,54.55
2023-05-20T10:47:46.778Z,54.13
2023-05-20T10:48:45.818Z,54.22
2023-05-20T10:49:45.723Z,53.80
2023-05-20T10:50:45.677Z,53.50
2023-05-20T10:51:45.693Z,52.87
2023-05-20T10:52:45.649Z,52.47
2023-05-20T10:53:45.655Z,52.44
2023-05-20T10:54:45.618Z,52.55
2023-05-20T10:55:45.640Z,52.44
2023-05-20T10:56:45.609Z,52.04
2023-05-20T10:57:45.650Z,52.14
2023-05-20T10:58:45.579Z,51.82
2023-05-20T10:59:45.594Z,51.82
2023-05-20T11:00:45.706Z,51.62
2023-05-20T11:01:46.337Z,51.64
2023-05-20T11:02:45.665Z,51.94
2023-05-20T11:03:46.147Z,52.77
2023-05-20T11:04:45.510Z,52.24
2023-05-20T11:05:45.516Z,52.07
2023-05-20T11:06:45.516Z,52.29
2023-05-20T11:07:45.539Z,52.80
2023-05-20T11:08:45.561Z,52.19
2023-05-20T11:09:45.593Z,52.62
2023-05-20T11:10:45.464Z,52.92
2023-05-20T11:11:45.461Z,53.25
2023-05-20T11:12:45.455Z,54.02
2023-05-20T11:13:45.681Z,53.25
2023-05-20T11:14:45.398Z,53.62
2023-05-20T11:15:45.804Z,53.62
2023-05-20T11:16:45.576Z,53.00
2023-05-20T11:17:45.457Z,53.50
2023-05-20T11:18:45.483Z,53.27
2023-05-20T11:19:45.368Z,52.87
2023-05-20T11:20:45.340Z,51.87
2023-05-20T11:21:46.123Z,52.34
2023-05-20T11:22:45.322Z,51.72
2023-05-20T11:23:45.389Z,51.51
2023-05-20T11:24:45.332Z,50.81
2023-05-20T11:25:45.292Z,50.79
2023-05-20T11:26:45.258Z,50.89
2023-05-20T11:27:45.294Z,49.58
2023-05-20T11:28:45.275Z,50.29
2023-05-20T11:29:45.275Z,50.39
2023-05-20T11:30:45.247Z,50.37
2023-05-20T11:31:45.244Z,50.44
2023-05-20T11:32:45.255Z,50.02
2023-05-20T11:33:45.203Z,48.72
2023-05-20T11:34:45.168Z,49.04
2023-05-20T11:35:45.234Z,49.72
2023-05-20T11:36:45.217Z,49.91
2023-05-20T11:37:45.190Z,49.79
2023-05-20T11:38:45.193Z,48.90
2023-05-20T11:39:45.269Z,49.19
2023-05-20T11:40:51.212Z,48.87
2023-05-20T11:41:46.145Z,48.37
2023-05-20T11:42:45.206Z,48.75
2023-05-20T11:43:45.192Z,47.95
2023-05-20T11:44:45.074Z,47.47
2023-05-20T11:45:45.107Z,48.47
2023-05-20T11:46:45.139Z,48.77
2023-05-20T11:47:45.114Z,48.77
2023-05-20T11:48:45.028Z,48.35
2023-05-20T11:49:45.131Z,48.35
2023-05-20T11:50:45.046Z,47.75
2023-05-20T11:51:45.338Z,47.65
2023-05-20T11:52:44.957Z,47.65
2023-05-20T11:53:45.058Z,47.30
2023-05-20T11:54:44.942Z,48.52
2023-05-20T11:55:44.964Z,49.54
2023-05-20T11:56:44.985Z,49.87
2023-05-20T11:57:45.591Z,50.37
2023-05-20T11:58:44.933Z,50.26
2023-05-20T11:59:44.917Z,50.76
2023-05-20T12:00:51.781Z,50.24
2023-05-20T12:01:45.991Z,49.84
2023-05-20T12:02:45.073Z,49.82
2023-05-20T12:03:45.181Z,49.52
2023-05-20T12:04:45.164Z,49.72
2023-05-20T12:05:44.909Z,49.52
2023-05-20T12:06:44.809Z,49.24
2023-05-20T12:07:44.833Z,49.44
2023-05-20T12:08:44.858Z,49.96
2023-05-20T12:09:44.822Z,50.67
2023-05-20T12:10:44.782Z,50.87
2023-05-20T12:11:44.878Z,50.87
2023-05-20T12:12:44.769Z,50.96
2023-05-20T12:13:45.495Z,50.64
2023-05-20T12:14:44.756Z,50.24
2023-05-20T12:15:45.480Z,50.16
2023-05-20T12:16:44.695Z,50.57
2023-05-20T12:17:44.761Z,50.57
2023-05-20T12:18:44.749Z,50.67
2023-05-20T12:19:44.939Z,51.09
2023-05-20T12:20:44.673Z,51.01
2023-05-20T12:21:44.683Z,52.07
2023-05-20T12:22:44.737Z,53.00
2023-05-20T12:23:44.728Z,53.50
2023-05-20T12:24:44.649Z,53.00
2023-05-20T12:25:44.707Z,52.67
2023-05-20T12:26:44.611Z,53.37
2023-05-20T12:27:44.606Z,53.37
2023-05-20T12:28:44.611Z,53.27
2023-05-20T12:29:45.007Z,52.44
2023-05-20T12:30:44.617Z,52.24
2023-05-20T12:31:44.595Z,52.44
2023-05-20T12:32:44.824Z,52.34
2023-05-20T12:33:45.267Z,52.47
2023-05-20T12:34:44.519Z,52.87
2023-05-20T12:35:44.534Z,52.87
2023-05-20T12:36:44.472Z,52.67
2023-05-20T12:37:44.533Z,52.59
2023-05-20T12:38:44.534Z,53.20
2023-05-20T12:39:44.662Z,53.80
2023-05-20T12:40:44.462Z,54.10
2023-05-20T12:41:44.445Z,53.67
2023-05-20T12:42:44.420Z,53.05
2023-05-20T12:43:44.468Z,53.05
2023-05-20T12:44:44.493Z,52.14
2023-05-20T12:45:44.487Z,51.84
2023-05-20T12:46:44.407Z,52.04
2023-05-20T12:47:44.574Z,52.24
2023-05-20T12:48:44.336Z,51.74
2023-05-20T12:49:44.350Z,51.54
2023-05-20T12:50:44.370Z,51.94
2023-05-20T12:51:44.521Z,51.84
2023-05-20T12:52:44.514Z,51.97